Time;durP1;ratioP1;P1;durP2;ratioP2;P2;SDS_P1;SDS_P2;PMS_P1;PMS_P2;Temp;Humidity;BMP_temperature;BMP_pressure;BME280_temperature;BME280_humidity;BME280_pressure;Samples;Min_cycle;Max_cycle;Signal;HPM_P1;HPM_P2
2022/04/02 00:02:21;;;;;;;2.30;1.10;;;;;;;12.06;95.70;92936.97;5074309;28;20204;-61
2022/04/02 00:04:46;;;;;;;2.43;0.90;;;;;;;12.13;92.71;92967.59;5074241;28;20188;-62
2022/04/02 00:07:12;;;;;;;2.67;0.90;;;;;;;12.15;92.57;92965.66;5045050;23;20221;-65
2022/04/02 00:09:37;;;;;;;2.07;1.00;;;;;;;12.13;92.81;92953.09;5054379;28;20297;-61
2022/04/02 00:12:03;;;;;;;2.90;0.80;;;;;;;12.17;94.07;92945.88;5054238;28;20611;-64
2022/04/02 00:14:29;;;;;;;3.87;0.83;;;;;;;12.20;92.00;92976.88;5054229;28;20173;-60
2022/04/02 00:16:55;;;;;;;4.17;1.23;;;;;;;12.20;92.91;92948.09;5054042;28;20544;-65
2022/04/02 00:19:21;;;;;;;2.07;0.77;;;;;;;12.21;93.35;92945.34;5035785;28;20174;-60
2022/04/02 00:21:46;;;;;;;1.43;0.80;;;;;;;12.16;91.44;92969.78;5053538;28;20213;-64
2022/04/02 00:24:12;;;;;;;2.40;0.80;;;;;;;12.12;91.82;92971.13;5053671;28;20185;-64
2022/04/02 00:26:37;;;;;;;5.30;0.87;;;;;;;12.20;91.16;92976.09;5053469;28;20208;-64
2022/04/02 00:29:05;;;;;;;2.33;0.87;;;;;;;12.18;90.47;92995.88;5053407;28;20268;-62
2022/04/02 00:31:32;;;;;;;1.53;1.00;;;;;;;12.05;91.02;92980.44;5035800;28;20698;-65
2022/04/02 00:33:57;;;;;;;2.80;1.23;;;;;;;11.91;91.01;92978.72;5078843;23;20234;-61
2022/04/02 00:36:23;;;;;;;0.93;0.53;;;;;;;11.98;88.79;93023.66;5073638;28;20558;-64
2022/04/02 00:38:49;;;;;;;0.93;0.40;;;;;;;12.01;89.48;92999.59;5073602;28;20176;-64
2022/04/02 00:41:15;;;;;;;3.17;0.60;;;;;;;11.99;88.89;93027.78;5072825;28;20244;-65
2022/04/02 00:43:55;;;;;;;2.90;0.60;;;;;;;11.87;90.70;92974.94;5073543;28;20254;-62
2022/04/02 00:46:23;;;;;;;0.97;0.70;;;;;;;11.99;90.30;93004.06;5073237;28;20284;-65
2022/04/02 00:48:50;;;;;;;0.67;0.40;;;;;;;12.08;86.62;93076.88;5073262;28;20180;-61
2022/04/02 00:51:16;;;;;;;0.60;0.40;;;;;;;11.96;87.61;93042.63;5073066;28;20259;-62
2022/04/02 00:53:47;;;;;;;1.13;0.40;;;;;;;11.96;85.36;93073.97;5055042;28;20185;-62
2022/04/02 00:56:13;;;;;;;0.67;0.40;;;;;;;11.92;87.07;93054.91;5073392;28;20207;-65
2022/04/02 00:58:39;;;;;;;0.77;0.20;;;;;;;11.96;83.46;93107.06;5072957;28;20612;-61
2022/04/02 01:01:06;;;;;;;1.93;0.43;;;;;;;12.04;86.38;93045.09;5072128;28;20216;-62
2022/04/02 01:03:32;;;;;;;1.33;0.37;;;;;;;12.08;87.65;93024.16;5055174;28;20253;-61
2022/04/02 01:05:58;;;;;;;2.67;0.70;;;;;;;12.09;85.87;93055.53;5054753;28;20208;-65
2022/04/02 01:08:24;;;;;;;3.60;0.77;;;;;;;12.12;85.71;93029.72;5073037;28;20181;-63
2022/04/02 01:10:49;;;;;;;2.37;0.90;;;;;;;12.23;90.48;92948.50;5060550;22;20618;-65
2022/04/02 01:13:16;;;;;;;1.07;0.70;;;;;;;12.09;90.75;92967.16;5052769;28;20563;-67
2022/04/02 01:15:41;;;;;;;1.10;0.77;;;;;;;12.02;87.90;93003.72;5052874;28;20255;-64
2022/04/02 01:18:07;;;;;;;2.90;0.50;;;;;;;12.08;86.67;93025.94;5052348;28;20178;-63
2022/04/02 01:20:33;;;;;;;2.60;0.60;;;;;;;12.20;86.67;93024.50;5051537;28;20697;-65
2022/04/02 01:23:00;;;;;;;1.00;0.53;;;;;;;12.12;86.57;93027.16;5052631;28;20601;-65
2022/04/02 01:25:35;;;;;;;0.93;0.47;;;;;;;12.13;85.16;93052.44;5053074;28;20229;-62
2022/04/02 01:28:02;;;;;;;2.47;0.50;;;;;;;12.06;86.24;93012.59;5035749;28;20173;-60
2022/04/02 01:30:29;;;;;;;1.90;0.63;;;;;;;11.97;87.59;92999.16;5053092;28;20227;-66
2022/04/02 01:32:55;;;;;;;1.80;1.00;;;;;;;12.00;89.21;92972.56;5034750;28;20182;-63
2022/04/02 01:35:21;;;;;;;1.37;0.73;;;;;;;12.03;83.73;93067.22;5053033;28;20202;-64
2022/04/02 01:37:48;;;;;;;2.33;0.53;;;;;;;12.13;83.15;93074.56;5034455;28;20213;-62
2022/04/02 01:40:13;;;;;;;1.20;0.50;;;;;;;12.09;83.31;93080.97;5052669;28;20185;-62
2022/04/02 01:42:39;;;;;;;2.13;0.60;;;;;;;12.07;83.14;93060.00;5034449;28;20216;-64
2022/04/02 01:45:05;;;;;;;0.80;0.80;;;;;;;12.15;85.34;93021.69;5052602;28;20232;-63
2022/04/02 01:47:30;;;;;;;0.73;0.40;;;;;;;12.28;83.17;93073.56;5052144;28;20189;-59
2022/04/02 01:49:56;;;;;;;1.80;0.40;;;;;;;12.27;84.00;93066.13;5051709;28;20197;-64
2022/04/02 01:52:21;;;;;;;1.63;0.67;;;;;;;12.32;83.03;93074.03;5032543;28;20201;-61
2022/04/02 01:54:48;;;;;;;1.40;0.83;;;;;;;12.15;83.32;93067.53;5052534;28;20196;-65
2022/04/02 01:57:14;;;;;;;4.40;0.77;;;;;;;12.15;84.46;93063.25;5075844;23;20228;-65
2022/04/02 01:59:40;;;;;;;1.73;0.60;;;;;;;12.09;85.05;93048.66;5072068;28;20587;-64
2022/04/02 02:02:07;;;;;;;4.80;0.50;;;;;;;12.12;85.09;93055.19;5071806;28;20303;-62
2022/04/02 02:04:33;;;;;;;1.37;0.50;;;;;;;12.01;82.79;93078.53;5072004;28;20227;-65
2022/04/02 02:07:00;;;;;;;2.07;0.37;;;;;;;11.96;86.49;93007.75;5071810;28;20204;-63
2022/04/02 02:09:31;;;;;;;1.27;0.50;;;;;;;11.93;85.27;93035.34;5071900;28;20259;-64
2022/04/02 02:11:56;;;;;;;0.70;0.50;;;;;;;12.12;82.50;93075.56;5053804;28;20231;-64
2022/04/02 02:14:22;;;;;;;0.70;0.70;;;;;;;12.15;82.83;93059.91;5071912;28;20674;-65
2022/04/02 02:16:48;;;;;;;4.40;0.70;;;;;;;12.09;83.27;93055.53;5071818;28;20372;-64
2022/04/02 02:19:14;;;;;;;1.17;0.80;;;;;;;12.12;83.55;93078.88;5071884;28;20209;-65
2022/04/02 02:21:39;;;;;;;1.97;0.60;;;;;;;12.01;79.80;93114.19;5071783;28;20213;-61
2022/04/02 02:24:06;;;;;;;0.57;0.33;;;;;;;11.91;81.25;93068.63;5071846;28;20234;-61
2022/04/02 02:26:32;;;;;;;0.33;0.30;;;;;;;11.80;80.84;93074.16;5072065;28;20201;-66
2022/04/02 02:28:57;;;;;;;0.53;0.50;;;;;;;11.97;80.19;93067.91;5070446;28;20234;-60
2022/04/02 02:31:23;;;;;;;0.87;0.40;;;;;;;11.87;82.82;93023.31;5070483;28;20598;-64
2022/04/02 02:36:32;;;;;;;0.43;0.30;;;;;;;12.05;82.40;93011.00;5072420;28;20231;-63
2022/04/02 02:38:59;;;;;;;0.80;0.40;;;;;;;12.16;84.21;92992.72;5071282;28;20181;-61
2022/04/02 02:41:24;;;;;;;1.23;0.40;;;;;;;12.04;82.22;93034.91;5072074;28;20299;-62
2022/04/02 02:43:50;;;;;;;2.70;0.30;;;;;;;11.90;82.77;93008.47;5071680;28;20267;-63
2022/04/02 02:46:17;;;;;;;0.60;0.23;;;;;;;11.91;85.06;92968.53;5071893;28;20242;-62
2022/04/02 02:48:44;;;;;;;0.50;0.50;;;;;;;12.04;85.52;92954.19;5071621;28;20181;-61
2022/04/02 02:51:09;;;;;;;0.87;0.30;;;;;;;12.16;83.54;92988.38;5071879;28;20208;-60
2022/04/02 02:53:35;;;;;;;1.43;0.40;;;;;;;12.20;85.75;92953.19;5070782;28;20177;-63
2022/04/02 02:56:00;;;;;;;0.57;0.40;;;;;;;12.36;85.20;92966.44;5070186;28;20224;-63
2022/04/02 02:58:26;;;;;;;0.73;0.50;;;;;;;12.26;82.47;93013.59;5070815;28;20177;-65
2022/04/02 03:00:57;;;;;;;1.70;0.40;;;;;;;12.36;80.49;93029.38;5071348;28;20215;-64
2022/04/02 03:03:23;;;;;;;0.60;0.60;;;;;;;12.35;85.21;92952.16;5071617;28;20177;-60
2022/04/02 03:05:49;;;;;;;0.50;0.50;;;;;;;12.05;87.14;92932.06;5071709;28;20580;-63
2022/04/02 03:08:16;;;;;;;1.40;0.40;;;;;;;12.06;86.35;92956.56;5071631;28;20192;-61
2022/04/02 03:10:43;;;;;;;2.30;0.53;;;;;;;12.21;84.38;92990.41;5071818;28;20209;-62
2022/04/02 03:13:08;;;;;;;0.90;0.63;;;;;;;12.11;84.93;92967.78;5071386;28;20635;-63
2022/04/02 03:15:34;;;;;;;1.73;0.70;;;;;;;12.29;84.82;93019.13;5071393;28;20269;-61
2022/04/02 03:18:15;;;;;;;2.43;0.43;;;;;;;12.28;86.67;93004.78;5071277;28;20177;-64
2022/04/02 03:20:41;;;;;;;0.50;0.47;;;;;;;12.30;86.60;92981.69;5071450;28;20228;-60
2022/04/02 03:23:06;;;;;;;1.67;0.70;;;;;;;12.10;89.73;92904.28;5072422;28;20181;-61
2022/04/02 03:25:32;;;;;;;1.33;0.90;;;;;;;12.00;90.87;92898.72;5074311;28;20288;-61
2022/04/02 03:27:58;;;;;;;2.40;0.57;;;;;;;11.78;90.83;92923.34;5073988;28;20177;-61
2022/04/02 03:30:25;;;;;;;0.67;0.67;;;;;;;11.68;88.56;92969.44;5075020;28;20576;-61
2022/04/02 03:32:52;;;;;;;0.90;0.80;;;;;;;11.52;92.04;92907.75;5074785;28;20177;-63
2022/04/02 03:35:18;;;;;;;4.13;1.83;;;;;;;11.44;91.67;92916.28;5074869;28;20201;-61
2022/04/02 03:37:46;;;;;;;0.80;0.70;;;;;;;11.54;92.44;92906.59;5074629;28;20177;-62
2022/04/02 03:40:16;;;;;;;0.97;0.67;;;;;;;11.47;94.05;92889.69;5056634;28;20187;-63
2022/04/02 03:42:44;;;;;;;0.60;0.60;;;;;;;11.65;91.63;92933.38;5074848;28;20208;-63
2022/04/02 03:45:12;;;;;;;1.10;0.50;;;;;;;11.96;89.31;92961.94;5074646;28;20185;-64
2022/04/02 03:47:38;;;;;;;2.63;0.70;;;;;;;12.18;89.77;92947.47;5074324;28;20181;-62
2022/04/02 03:50:05;;;;;;;2.00;0.67;;;;;;;12.00;80.33;93100.66;5074084;28;20279;-60
2022/04/02 03:52:31;;;;;;;2.20;0.53;;;;;;;11.97;83.07;93032.28;5074413;28;20173;-60
2022/04/02 03:55:15;;;;;;;2.53;0.67;;;;;;;11.97;79.54;93100.22;5074127;28;20592;-64
2022/04/02 03:57:41;;;;;;;0.67;0.60;;;;;;;12.11;79.05;93130.78;5055707;28;20234;-65
2022/04/02 04:00:08;;;;;;;0.90;0.50;;;;;;;12.26;76.37;93161.34;5054061;28;20189;-64
2022/04/02 04:02:37;;;;;;;2.00;0.50;;;;;;;12.24;74.92;93163.28;5073112;28;20213;-62
2022/04/02 04:05:06;;;;;;;1.80;0.40;;;;;;;12.37;77.06;93117.56;5056403;28;20184;-60
2022/04/02 04:07:32;;;;;;;3.77;0.90;;;;;;;12.34;82.40;93023.69;5073924;28;20181;-63
2022/04/02 04:09:57;;;;;;;2.93;0.93;;;;;;;12.27;84.84;92993.03;5073927;28;20189;-63
2022/04/02 04:12:22;;;;;;;5.53;0.80;;;;;;;11.84;89.43;92929.50;5074646;28;20260;-61
2022/04/02 04:14:48;;;;;;;1.13;0.60;;;;;;;11.73;89.38;92962.09;5056068;28;20250;-64
2022/04/02 04:17:14;;;;;;;1.90;0.90;;;;;;;11.94;85.31;93042.03;5073996;28;20271;-62
2022/04/02 04:19:40;;;;;;;3.10;1.20;;;;;;;12.01;83.74;93030.16;5074017;28;20188;-61
2022/04/02 04:22:06;;;;;;;0.90;0.90;;;;;;;11.99;85.02;92996.44;5055547;28;20599;-61
2022/04/02 04:24:32;;;;;;;1.33;0.80;;;;;;;12.06;79.71;93028.63;5055248;28;20177;-59
2022/04/02 04:26:58;;;;;;;3.23;1.10;;;;;;;11.70;80.23;93010.00;5071877;28;20200;-62
2022/04/02 04:29:24;;;;;;;2.90;1.00;;;;;;;11.94;79.15;93024.22;5073628;28;20177;-61
2022/04/02 04:31:49;;;;;;;3.37;1.30;;;;;;;12.03;79.21;93018.03;5055651;28;20259;-61
2022/04/02 04:34:17;;;;;;;1.63;1.20;;;;;;;11.89;81.45;92981.44;5073305;28;20655;-59
2022/04/02 04:36:43;;;;;;;0.83;0.83;;;;;;;11.74;81.21;92986.56;5073420;28;20193;-64
2022/04/02 04:39:08;;;;;;;1.60;1.10;;;;;;;11.95;79.41;93010.50;5073410;28;20188;-64
2022/04/02 04:41:36;;;;;;;2.73;0.90;;;;;;;12.04;78.99;93024.72;5073660;28;20266;-63
2022/04/02 04:44:08;;;;;;;2.17;0.90;;;;;;;11.85;78.45;93043.06;5073422;28;20273;-63
2022/04/02 04:46:33;;;;;;;2.77;1.20;;;;;;;12.40;99.85;92989.81;5073659;28;20216;-63
2022/04/02 04:48:59;;;;;;;7.57;0.97;;;;;;;12.59;100.00;92925.47;5073456;28;20565;-62
2022/04/02 04:51:24;;;;;;;1.57;1.00;;;;;;;13.28;100.00;92939.13;5073463;28;20201;-71
2022/04/02 04:53:50;;;;;;;1.20;0.83;;;;;;;12.91;84.20;93126.41;5076804;28;20177;-68
2022/04/02 04:56:16;;;;;;;2.37;0.80;;;;;;;12.56;84.19;93084.66;5131319;22;20224;-65
2022/04/02 04:58:41;;;;;;;3.17;1.10;;;;;;;13.45;100.00;92986.34;5133643;23;20225;-66
2022/04/02 05:01:08;;;;;;;2.30;1.30;;;;;;;13.89;100.00;92998.75;5215283;23;20233;-69
2022/04/02 05:03:34;;;;;;;2.87;1.23;;;;;;;13.58;76.87;93157.47;5066328;23;20275;-68
2022/04/02 05:06:00;;;;;;;1.70;1.30;;;;;;;13.61;79.94;93079.72;5149210;23;20248;-71
2022/04/02 05:08:26;;;;;;;3.37;1.87;;;;;;;13.13;80.15;93069.34;5073041;23;20244;-70
2022/04/02 05:10:53;;;;;;;3.40;1.27;;;;;;;12.77;80.79;93058.41;5065938;23;20233;-70
2022/04/02 05:13:19;;;;;;;4.07;1.40;;;;;;;13.09;78.59;93095.44;5115563;23;20252;-68
2022/04/02 05:15:45;;;;;;;1.50;0.97;;;;;;;12.95;79.60;93081.72;5109503;23;20249;-70
2022/04/02 05:18:12;;;;;;;3.43;2.13;;;;;;;12.70;83.31;93015.97;5072591;23;20217;-69
2022/04/02 05:20:39;;;;;;;8.80;5.70;;;;;;;12.54;81.53;93040.72;5124419;23;20225;-68
2022/04/02 05:23:05;;;;;;;2.83;2.43;;;;;;;12.21;80.97;93061.72;5181455;23;20233;-69
2022/04/02 05:27:56;;;;;;;1.97;0.87;;;;;;;12.70;75.49;93151.09;5283981;23;20237;-69
2022/04/02 05:30:22;;;;;;;1.20;0.80;;;;;;;12.77;78.31;93088.19;4942654;23;7910856;-68
2022/04/02 05:32:47;;;;;;;1.57;0.90;;;;;;;13.03;76.51;93088.47;5148904;23;20224;-68
2022/04/02 05:35:12;;;;;;;1.43;1.27;;;;;;;12.69;76.09;93109.50;5162650;23;20375;-69
2022/04/02 05:37:45;;;;;;;2.00;0.80;;;;;;;12.49;72.33;93182.41;5092998;23;20225;-66
2022/04/02 05:40:12;;;;;;;1.90;1.30;;;;;;;12.24;73.24;93160.75;5140886;23;20303;-68
2022/04/02 05:42:37;;;;;;;5.03;3.40;;;;;;;12.20;72.67;93160.28;5107524;22;20205;-70
2022/04/02 05:45:05;;;;;;;4.43;1.73;;;;;;;12.23;72.67;93152.31;5091062;23;20707;-69
2022/04/02 05:50:01;;;;;;;1.33;0.70;;;;;;;12.84;71.74;93171.47;5104469;23;20240;-67
2022/04/02 05:52:26;;;;;;;2.13;0.60;;;;;;;12.80;70.55;93200.84;5116181;23;20236;-66
2022/04/02 05:54:52;;;;;;;3.17;0.90;;;;;;;12.92;68.14;93224.13;5073649;23;20234;-68
2022/04/02 05:57:18;;;;;;;3.07;0.50;;;;;;;12.85;66.67;93234.22;5065105;23;20232;-67
2022/04/02 05:59:43;;;;;;;2.43;0.57;;;;;;;12.89;65.98;93252.53;5034396;28;20686;-67
2022/04/02 06:02:12;;;;;;;3.83;0.73;;;;;;;12.93;65.88;93235.91;5034502;28;20698;-72
2022/04/02 06:04:37;;;;;;;3.50;0.70;;;;;;;12.95;64.81;93267.91;5052262;28;20199;-67
2022/04/02 06:09:28;;;;;;;1.90;0.80;;;;;;;13.21;61.74;93286.09;5075084;23;20240;-65
2022/04/02 06:11:53;;;;;;;2.10;0.43;;;;;;;13.12;65.05;93220.06;5072913;23;20514;-70
2022/04/02 06:14:26;;;;;;;3.43;0.43;;;;;;;13.13;66.02;93204.56;5052174;28;20185;-66
2022/04/02 06:16:51;;;;;;;1.87;0.43;;;;;;;13.18;67.17;93196.38;5072932;23;20315;-64
2022/04/02 06:19:19;;;;;;;2.70;0.60;;;;;;;13.21;67.87;93178.94;5074889;23;20312;-69
2022/04/02 06:21:45;;;;;;;2.20;0.40;;;;;;;13.28;63.77;93261.47;5076779;23;20764;-71
2022/04/02 06:24:10;;;;;;;1.07;0.57;;;;;;;13.34;63.43;93268.41;5067851;23;20233;-71
2022/04/02 06:26:36;;;;;;;1.07;0.67;;;;;;;13.29;65.36;93229.09;5052307;28;20208;-71
2022/04/02 06:29:01;;;;;;;2.57;0.57;;;;;;;13.43;66.66;93203.47;5052670;28;20190;-70
2022/04/02 06:31:27;;;;;;;1.90;0.90;;;;;;;13.36;68.92;93172.03;5033968;28;20201;-69
2022/04/02 06:33:52;;;;;;;1.43;0.70;;;;;;;13.44;67.96;93184.66;5052604;28;20185;-67
2022/04/02 06:36:19;;;;;;;1.73;0.50;;;;;;;13.36;66.35;93230.72;5051797;28;20193;-65
2022/04/02 06:38:45;;;;;;;3.43;0.70;;;;;;;13.35;68.27;93180.63;5052194;28;20182;-70
2022/04/02 06:41:10;;;;;;;1.05;0.68;;;;;;;13.32;71.23;93119.75;5033952;28;20212;-70
2022/04/02 06:43:36;;;;;;;3.00;1.27;;;;;;;13.10;69.30;93156.47;5030754;23;20230;-61
2022/04/02 06:46:01;;;;;;;4.13;0.73;;;;;;;13.13;67.34;93201.25;5032094;28;20285;-68
2022/04/02 06:48:27;;;;;;;0.70;0.70;;;;;;;13.30;69.86;93162.53;5032064;28;20186;-62
2022/04/02 06:50:53;;;;;;;4.00;0.70;;;;;;;13.30;68.38;93185.50;5031498;28;20228;-66
2022/04/02 06:53:19;;;;;;;5.07;1.00;;;;;;;13.45;71.73;93124.97;5031969;28;20548;-62
2022/04/02 06:55:45;;;;;;;2.70;1.57;;;;;;;13.31;72.01;93138.59;5031986;28;20202;-66
2022/04/02 06:58:24;;;;;;;0.93;0.83;;;;;;;13.58;65.65;93266.47;5015924;28;20260;-62
2022/04/02 07:00:50;;;;;;;2.70;0.90;;;;;;;13.51;64.40;93291.16;5034405;28;20210;-67
2022/04/02 07:03:15;;;;;;;1.20;0.67;;;;;;;13.69;62.76;93325.53;5035491;28;20340;-65
2022/04/02 07:05:40;;;;;;;1.40;0.50;;;;;;;13.60;62.32;93325.78;5035869;28;20190;-61
2022/04/02 07:08:06;;;;;;;1.47;0.80;;;;;;;13.52;64.72;93272.28;5035957;28;20182;-61
2022/04/02 07:10:32;;;;;;;4.13;1.50;;;;;;;13.31;66.00;93247.56;5035593;28;20285;-66
2022/04/02 07:12:57;;;;;;;1.73;1.23;;;;;;;13.04;66.48;93222.72;5035807;28;20186;-67
2022/04/02 07:15:22;;;;;;;2.83;1.40;;;;;;;13.03;65.83;93231.31;5035699;28;20206;-62
2022/04/02 07:17:48;;;;;;;2.83;0.60;;;;;;;12.93;62.68;93302.22;5035443;28;20193;-66
2022/04/02 07:20:18;;;;;;;1.63;1.03;;;;;;;13.03;63.97;93275.47;5017360;28;20292;-61
2022/04/02 07:22:44;;;;;;;2.47;1.70;;;;;;;13.11;64.47;93259.31;5035372;28;20214;-65
2022/04/02 07:25:12;;;;;;;3.47;1.53;;;;;;;13.24;65.86;93249.22;5034959;28;20178;-66
2022/04/02 07:27:38;;;;;;;2.55;1.00;;;;;;;13.14;61.60;93338.03;5035215;28;20186;-65
2022/04/02 07:30:05;;;;;;;3.13;1.40;;;;;;;13.17;62.92;93297.63;5034924;28;20171;-65
2022/04/02 07:32:30;;;;;;;1.42;0.88;;;;;;;13.35;62.25;93330.44;5034773;28;20270;-65
2022/04/02 07:34:56;;;;;;;2.00;0.60;;;;;;;13.39;61.97;93340.09;5017157;28;20261;-65
2022/04/02 07:37:27;;;;;;;3.90;0.93;;;;;;;13.51;65.04;93273.28;5033434;28;20184;-65
2022/04/02 07:40:03;;;;;;;1.40;0.60;;;;;;;13.77;61.97;93334.81;5035103;28;20743;-64
2022/04/02 07:43:02;;;;;;;2.73;1.37;;;;;;;13.67;66.81;93229.63;5034407;28;20283;-66
2022/04/02 07:45:32;;;;;;;5.75;3.63;;;;;;;13.49;65.16;93255.59;4976868;28;20218;-63
2022/04/02 07:47:59;;;;;;;1.35;1.08;;;;;;;13.58;65.05;93251.94;5034842;28;20273;-65
2022/04/02 07:50:26;;;;;;;1.92;1.10;;;;;;;13.67;62.79;93306.25;5034749;28;20202;-62
2022/04/02 07:52:55;;;;;;;3.13;1.10;;;;;;;13.74;63.29;93290.00;5016743;28;20183;-60
2022/04/02 07:55:22;;;;;;;9.25;0.77;;;;;;;13.79;62.44;93332.88;5034407;28;20202;-60
2022/04/02 07:57:51;;;;;;;1.83;0.87;;;;;;;13.81;62.46;93302.84;5033177;28;20189;-63
2022/04/02 08:00:20;;;;;;;4.05;1.13;;;;;;;13.97;61.33;93346.03;5016205;28;20210;-64
2022/04/02 08:02:47;;;;;;;3.30;0.98;;;;;;;13.97;63.95;93262.50;5034502;28;20617;-66
2022/04/02 08:05:15;;;;;;;4.13;0.80;;;;;;;13.75;59.08;93380.97;5034518;28;20653;-60
2022/04/02 08:07:44;;;;;;;1.23;0.63;;;;;;;13.74;60.54;93350.50;5034343;28;20178;-63
2022/04/02 08:10:12;;;;;;;8.18;1.25;;;;;;;13.70;60.69;93339.06;5033845;28;20193;-63
2022/04/02 08:12:39;;;;;;;3.00;1.13;;;;;;;13.65;60.76;93319.19;5034247;28;20190;-61
2022/04/02 08:15:07;;;;;;;4.57;0.88;;;;;;;13.84;61.46;93287.13;5034495;28;20224;-60
2022/04/02 08:17:33;;;;;;;1.08;0.80;;;;;;;13.90;60.68;93324.72;5034103;28;20179;-65
2022/04/02 08:20:00;;;;;;;1.73;0.90;;;;;;;14.04;56.72;93395.41;5034150;28;20236;-60
2022/04/02 08:22:27;;;;;;;0.83;0.83;;;;;;;13.94;53.54;93461.34;5033971;28;20230;-63
2022/04/02 08:24:53;;;;;;;4.80;0.80;;;;;;;13.86;52.95;93462.25;5033784;28;20182;-65
2022/04/02 08:27:39;;;;;;;1.23;0.60;;;;;;;13.81;52.13;93445.88;5033510;28;20191;-60
2022/04/02 08:30:06;;;;;;;2.57;0.67;;;;;;;13.83;54.53;93368.09;5016363;28;20203;-63
2022/04/02 08:33:16;;;;;;;1.17;0.43;;;;;;;13.83;53.21;93392.84;5033882;28;20181;-61
2022/04/02 08:35:52;;;;;;;7.60;4.50;;;;;;;13.79;53.97;93378.84;5033461;28;20214;-60
2022/04/02 08:38:33;;;;;;;3.43;1.67;;;;;;;13.72;53.31;93396.66;5033673;28;20277;-60
2022/04/02 08:41:20;;;;;;;1.37;1.20;;;;;;;13.74;51.82;93427.13;5033632;28;20271;-63
2022/04/02 08:44:26;;;;;;;3.22;1.60;;;;;;;14.01;53.45;93409.38;5015618;28;20604;-61
2022/04/02 08:47:12;;;;;;;1.97;1.00;;;;;;;14.19;52.93;93425.06;5005792;28;20221;-66
2022/04/02 08:49:37;;;;;;;2.13;0.73;;;;;;;14.37;52.98;93429.78;5058833;23;20621;-64
2022/04/02 08:52:15;;;;;;;2.85;0.80;;;;;;;14.48;54.42;93395.28;5053436;28;20224;-64
2022/04/02 08:54:57;;;;;;;3.35;0.80;;;;;;;14.53;56.38;93370.72;5053581;28;20204;-61
2022/04/02 08:57:32;;;;;;;9.35;1.40;;;;;;;14.32;54.67;93421.09;5052984;28;20208;-60
2022/04/02 09:00:15;;;;;;;2.50;0.90;;;;;;;14.19;54.98;93375.72;5052815;28;20169;-64
2022/04/02 09:03:07;;;;;;;3.50;0.83;;;;;;;14.33;55.24;93364.66;5053017;28;20687;-65
2022/04/02 09:06:08;;;;;;;1.42;0.90;;;;;;;14.50;54.94;93372.88;5052878;28;20209;-65
2022/04/02 09:08:46;;;;;;;3.00;1.40;;;;;;;14.40;51.52;93474.66;5053235;28;20569;-66
2022/04/02 09:11:24;;;;;;;2.67;0.90;;;;;;;14.13;51.68;93476.13;5052788;28;20208;-62
2022/04/02 09:14:08;;;;;;;1.93;0.83;;;;;;;14.27;50.84;93429.28;5053766;28;20264;-64
2022/04/02 09:16:42;;;;;;;2.50;1.00;;;;;;;14.29;52.73;93335.34;5034851;28;20205;-61
2022/04/02 09:19:31;;;;;;;1.30;0.93;;;;;;;14.26;51.71;93363.81;5053054;28;20273;-63
2022/04/02 09:22:14;;;;;;;1.93;0.73;;;;;;;14.22;51.11;93409.38;5033849;28;20205;-63
2022/04/02 09:25:01;;;;;;;2.97;0.90;;;;;;;14.27;50.32;93439.50;5052572;28;20178;-63
2022/04/02 09:27:38;;;;;;;5.70;1.37;;;;;;;14.44;50.01;93435.78;5052565;28;20260;-63
2022/04/02 09:30:44;;;;;;;4.93;1.20;;;;;;;14.52;49.36;93463.78;5052621;28;20524;-65
2022/04/02 09:33:37;;;;;;;3.28;1.13;;;;;;;14.86;50.17;93466.44;5034990;28;20266;-64
2022/04/02 09:36:37;;;;;;;1.87;1.40;;;;;;;15.27;48.57;93474.19;5052629;28;20280;-64
2022/04/02 09:39:05;;;;;;;2.55;0.85;;;;;;;15.76;47.30;93494.63;5034547;28;20651;-64
2022/04/02 09:41:49;;;;;;;3.47;1.00;;;;;;;15.82;47.23;93491.31;5052318;28;20300;-63
2022/04/02 09:44:30;;;;;;;0.80;0.70;;;;;;;16.50;47.38;93503.25;5052594;28;20192;-64
2022/04/02 09:47:13;;;;;;;3.55;1.10;;;;;;;16.81;44.00;93570.22;5052300;28;20197;-63
2022/04/02 09:50:07;;;;;;;1.17;0.60;;;;;;;16.99;43.29;93559.44;5052949;28;20651;-63
2022/04/02 09:52:37;;;;;;;2.35;0.75;;;;;;;16.79;41.96;93588.41;5034275;28;20176;-65
2022/04/02 09:55:16;;;;;;;2.42;0.80;;;;;;;16.13;44.29;93503.69;5051991;28;20184;-62
2022/04/02 09:58:29;;;;;;;1.58;0.60;;;;;;;16.65;43.81;93506.44;5052130;28;20217;-63
2022/04/02 10:01:01;;;;;;;3.72;0.70;;;;;;;17.01;44.01;93488.13;5052055;28;20198;-64
2022/04/02 10:03:32;;;;;;;2.58;0.90;;;;;;;17.11;44.16;93473.88;5052522;28;20269;-62
2022/04/02 10:06:13;;;;;;;1.23;0.82;;;;;;;17.27;45.13;93436.75;5052011;28;20707;-63
2022/04/02 10:08:52;;;;;;;1.65;0.88;;;;;;;17.01;44.00;93457.31;5034181;28;20197;-63
2022/04/02 10:11:24;;;;;;;3.92;0.80;;;;;;;17.13;42.83;93496.81;5051769;28;20262;-62
2022/04/02 10:13:52;;;;;;;2.03;0.80;;;;;;;16.86;40.76;93555.06;5052182;28;20583;-62
2022/04/02 10:16:22;;;;;;;4.47;1.05;;;;;;;16.69;40.72;93513.56;5051692;28;20193;-63
2022/04/02 10:18:53;;;;;;;0.40;0.40;;;;;;;16.74;40.35;93506.06;5051693;28;20181;-62
2022/04/02 10:21:20;;;;;;;2.58;0.80;;;;;;;16.99;41.55;93439.50;5051661;28;20211;-64
2022/04/02 10:23:52;;;;;;;6.30;0.95;;;;;;;17.06;38.07;93552.50;5052100;28;20212;-62
2022/04/02 10:26:20;;;;;;;2.42;0.80;;;;;;;16.87;38.39;93520.69;5051229;28;20246;-64
2022/04/02 10:28:54;;;;;;;1.50;0.50;;;;;;;16.98;39.03;93479.03;5051815;28;20190;-61
2022/04/02 10:31:49;;;;;;;0.73;0.57;;;;;;;16.88;38.87;93482.97;5051427;28;20218;-65
2022/04/02 10:34:42;;;;;;;1.25;0.57;;;;;;;16.70;38.75;93463.78;5033576;28;20189;-64
2022/04/02 10:37:18;;;;;;;1.85;0.50;;;;;;;16.79;38.60;93475.47;5051504;28;20551;-63
2022/04/02 10:40:00;;;;;;;1.88;0.32;;;;;;;16.94;38.59;93451.38;5051512;28;20571;-62
2022/04/02 10:42:49;;;;;;;0.73;0.40;;;;;;;17.00;38.97;93442.88;5051436;28;20740;-62
2022/04/02 10:45:18;;;;;;;0.50;0.50;;;;;;;17.18;38.70;93450.78;5051490;28;20172;-63
2022/04/02 10:47:47;;;;;;;2.05;0.77;;;;;;;17.25;38.12;93482.41;5051468;28;20198;-66
2022/04/02 10:50:18;;;;;;;2.45;0.63;;;;;;;17.18;36.82;93517.56;5033512;28;20189;-63
2022/04/02 10:52:47;;;;;;;4.22;0.50;;;;;;;17.41;37.29;93490.47;5033498;28;20232;-62
2022/04/02 10:55:15;;;;;;;1.70;0.40;;;;;;;17.46;36.35;93416.16;5051267;28;20182;-63
2022/04/02 10:57:41;;;;;;;2.22;0.32;;;;;;;17.21;36.51;93361.25;5051222;28;20194;-63
2022/04/02 11:00:09;;;;;;;1.20;0.50;;;;;;;17.30;36.25;93370.34;5051257;28;20174;-63
2022/04/02 11:02:46;;;;;;;1.92;0.73;;;;;;;16.76;37.29;93351.88;5051255;28;20225;-63
2022/04/02 11:05:18;;;;;;;1.40;0.73;;;;;;;16.41;38.55;93323.03;5051224;28;20172;-62
2022/04/02 11:07:51;;;;;;;1.75;0.55;;;;;;;16.05;40.15;93297.00;5033360;28;20289;-63
2022/04/02 11:10:19;;;;;;;3.38;0.98;;;;;;;15.24;51.16;93140.97;5051121;28;20598;-63
2022/04/02 11:12:46;;;;;;;1.40;0.65;;;;;;;14.60;52.35;93120.16;5033265;28;20522;-63
2022/04/02 11:15:23;;;;;;;0.57;0.57;;;;;;;14.46;55.34;93091.19;5033120;28;20185;-63
2022/04/02 11:17:54;;;;;;;3.20;0.70;;;;;;;14.23;56.75;93100.91;5049871;28;20567;-63
2022/04/02 11:20:22;;;;;;;0.77;0.73;;;;;;;14.12;56.55;93107.31;5051596;28;20221;-63
2022/04/02 11:22:57;;;;;;;1.50;0.90;;;;;;;14.28;61.45;93057.72;5051477;28;20590;-63
2022/04/02 11:25:32;;;;;;;1.17;1.05;;;;;;;14.75;67.01;93041.47;5050742;28;20209;-65
2022/04/02 11:28:15;;;;;;;0.97;0.73;;;;;;;14.99;62.80;93104.91;5051048;28;20181;-63
2022/04/02 11:31:05;;;;;;;1.90;0.60;;;;;;;14.77;60.76;93168.22;5049453;28;20274;-62
2022/04/02 11:33:53;;;;;;;0.87;0.87;;;;;;;14.84;61.27;93146.03;5051449;28;20196;-62
2022/04/02 11:36:23;;;;;;;1.07;0.70;;;;;;;14.55;62.58;93123.28;5032646;28;20264;-62
2022/04/02 11:38:58;;;;;;;2.03;0.80;;;;;;;15.12;60.08;93181.72;5051185;28;20185;-60
2022/04/02 11:41:30;;;;;;;0.77;0.77;;;;;;;14.83;61.80;93162.34;5050459;28;20217;-62
2022/04/02 11:44:07;;;;;;;1.88;0.65;;;;;;;14.56;58.16;93257.06;5052268;28;20326;-62
2022/04/02 11:46:59;;;;;;;0.60;0.60;;;;;;;13.77;58.57;93209.69;5054556;28;20616;-63
2022/04/02 11:49:29;;;;;;;3.10;0.70;;;;;;;13.50;60.78;93160.16;5054931;28;20197;-63
2022/04/02 11:52:10;;;;;;;2.87;1.00;;;;;;;13.00;66.02;93073.53;5036447;28;20201;-63
2022/04/02 11:54:58;;;;;;;0.60;0.47;;;;;;;12.61;67.96;93059.44;5036589;28;20192;-60
2022/04/02 11:57:24;;;;;;;3.00;0.70;;;;;;;12.17;76.85;93032.50;5036529;28;20177;-61
2022/04/02 12:00:05;;;;;;;1.03;0.70;;;;;;;11.59;82.87;93113.00;5036468;28;20188;-61